Terminal Aerodrome Forecast
Issued by NWS Paducah, KY

Home | Current Version | Previous Version | Text Only | Print | Product List | Glossary On
Versions: 1 2 3 4 5 6 7 8 9 10 11 12 13 14 15 16 17 18 19 20
000
FTUS43 KPAH 010735 AAA
TAFEVV
TAF AMD
KEVV 010735Z 0108/0206 07007KT P6SM VCSH SCT015 OVC060
      TEMPO 0109/0112 -SHRA BKN015
     FM011500 04007KT P6SM BKN015
     FM011900 02008KT P6SM BKN025 OVC120
     FM020100 04005KT P6SM OVC025=

USA.gov is the U.S. government's official web portal to all federal, state and local government web resources and services.